createdAt,value
2018-09-27T00:02:23.325Z,94.40
2018-09-27T00:04:52.613Z,95.00
2018-09-27T00:07:21.857Z,94.90
2018-09-27T00:09:51.098Z,94.40
2018-09-27T00:12:20.957Z,94.40
2018-09-27T00:14:50.196Z,94.80
2018-09-27T00:17:19.445Z,94.80
2018-09-27T00:19:48.639Z,94.70
2018-09-27T00:22:17.871Z,94.60
2018-09-27T00:24:47.070Z,94.90
2018-09-27T00:27:16.246Z,94.70
2018-09-27T00:29:45.446Z,94.80
2018-09-27T00:32:14.650Z,94.80
2018-09-27T00:34:43.920Z,94.60
2018-09-27T00:37:13.121Z,95.00
2018-09-27T00:39:42.344Z,95.00
2018-09-27T00:42:11.549Z,95.00
2018-09-27T00:44:40.757Z,94.80
2018-09-27T00:47:10.019Z,95.00
2018-09-27T00:49:39.210Z,95.10
2018-09-27T00:52:08.289Z,95.40
2018-09-27T00:54:37.382Z,95.80
2018-09-27T00:57:06.487Z,96.00
2018-09-27T00:59:35.724Z,96.10
2018-09-27T01:02:04.793Z,96.20
2018-09-27T01:04:33.859Z,96.00
2018-09-27T01:07:02.932Z,95.80
2018-09-27T01:09:32.094Z,95.70
2018-09-27T01:12:01.194Z,95.60
2018-09-27T01:14:30.266Z,95.30
2018-09-27T01:16:59.410Z,95.40
2018-09-27T01:19:28.506Z,95.50
2018-09-27T01:21:57.614Z,95.50
2018-09-27T01:24:26.730Z,95.50
2018-09-27T01:26:55.819Z,95.30
2018-09-27T01:29:24.928Z,95.80
2018-09-27T01:31:54.665Z,95.90
2018-09-27T01:34:24.291Z,95.60
2018-09-27T01:36:53.345Z,95.30
2018-09-27T01:39:22.475Z,95.00
2018-09-27T01:41:51.570Z,94.80
2018-09-27T01:44:20.642Z,94.70
2018-09-27T01:46:49.750Z,95.10
2018-09-27T01:49:25.166Z,95.00
2018-09-27T01:51:54.230Z,95.00
2018-09-27T01:54:23.414Z,94.90
2018-09-27T01:56:52.478Z,94.60
2018-09-27T01:59:21.571Z,94.60
2018-09-27T02:01:50.656Z,94.50
2018-09-27T02:04:19.724Z,94.30
2018-09-27T02:06:48.806Z,94.20
2018-09-27T02:09:17.900Z,94.20
2018-09-27T02:11:46.973Z,94.20
2018-09-27T02:14:16.062Z,94.30
2018-09-27T02:16:45.203Z,94.60
2018-09-27T02:19:14.282Z,94.80
2018-09-27T02:21:43.351Z,94.60
2018-09-27T02:24:12.445Z,94.50
2018-09-27T02:26:41.538Z,94.60
2018-09-27T02:29:10.747Z,94.30
2018-09-27T02:31:39.861Z,94.10
2018-09-27T02:34:08.937Z,94.40
2018-09-27T02:36:38.045Z,94.80
2018-09-27T02:39:09.083Z,95.10
2018-09-27T02:41:38.451Z,94.90
2018-09-27T02:44:07.664Z,94.60
2018-09-27T02:46:36.778Z,94.70
2018-09-27T02:49:05.876Z,94.70
2018-09-27T02:51:35.001Z,95.20
2018-09-27T02:54:04.158Z,95.70
2018-09-27T02:56:33.261Z,96.10
2018-09-27T02:59:02.397Z,96.10
2018-09-27T03:01:31.634Z,96.10
2018-09-27T03:04:00.934Z,96.00
2018-09-27T03:06:30.590Z,95.90
2018-09-27T03:08:59.677Z,95.40
2018-09-27T03:11:28.799Z,95.10
2018-09-27T03:13:58.009Z,95.20
2018-09-27T03:16:27.020Z,95.10
2018-09-27T03:18:56.116Z,95.10
2018-09-27T03:21:25.186Z,95.50
2018-09-27T03:23:54.245Z,95.40
2018-09-27T03:26:23.336Z,95.40
2018-09-27T03:28:52.415Z,95.70
2018-09-27T03:31:21.494Z,95.50
2018-09-27T03:33:50.575Z,95.30
2018-09-27T03:36:19.642Z,95.40
2018-09-27T03:38:48.774Z,95.70
2018-09-27T03:41:17.854Z,95.50
2018-09-27T03:43:46.994Z,95.40
2018-09-27T03:46:16.124Z,95.70
2018-09-27T03:48:45.222Z,95.60
2018-09-27T03:51:14.358Z,95.70
2018-09-27T03:53:43.466Z,95.70
2018-09-27T03:56:12.557Z,95.80
2018-09-27T03:58:41.633Z,95.60
2018-09-27T04:01:10.785Z,95.80
2018-09-27T04:03:39.877Z,96.30
2018-09-27T04:06:08.982Z,96.70
2018-09-27T04:08:38.082Z,96.70
2018-09-27T04:11:07.257Z,96.40
2018-09-27T04:13:36.370Z,96.30
2018-09-27T04:16:05.546Z,96.20
2018-09-27T04:18:34.625Z,96.50
2018-09-27T04:21:03.737Z,96.70
2018-09-27T04:23:32.846Z,96.70
2018-09-27T04:26:01.905Z,96.90
2018-09-27T04:28:30.998Z,97.00
2018-09-27T04:31:00.048Z,96.80
2018-09-27T04:33:29.125Z,96.30
2018-09-27T04:35:58.210Z,96.20
2018-09-27T04:38:27.285Z,95.70
2018-09-27T04:40:56.388Z,95.80
2018-09-27T04:43:25.497Z,95.80
2018-09-27T04:45:54.627Z,95.80
2018-09-27T04:48:23.670Z,95.80
2018-09-27T04:50:52.734Z,96.10
2018-09-27T04:53:21.844Z,96.40
2018-09-27T04:55:50.956Z,96.60
2018-09-27T04:58:20.045Z,96.30
2018-09-27T05:00:49.588Z,95.80
2018-09-27T05:03:18.690Z,95.90
2018-09-27T05:05:47.781Z,95.90
2018-09-27T05:08:16.857Z,96.00
2018-09-27T05:10:45.977Z,96.00
2018-09-27T05:13:15.104Z,95.80
2018-09-27T05:15:44.247Z,95.90
2018-09-27T05:18:13.328Z,96.00
2018-09-27T05:20:42.439Z,95.70
2018-09-27T05:23:11.513Z,95.80
2018-09-27T05:25:40.609Z,95.60
2018-09-27T05:28:09.806Z,95.50
2018-09-27T05:30:38.910Z,95.50
2018-09-27T05:33:08.065Z,95.40
2018-09-27T05:35:37.154Z,95.60
2018-09-27T05:38:06.349Z,95.60
2018-09-27T05:40:35.410Z,95.70
2018-09-27T05:43:04.511Z,95.60
2018-09-27T05:45:33.648Z,95.60
2018-09-27T05:48:02.725Z,95.60
2018-09-27T05:50:31.846Z,95.60
2018-09-27T05:53:00.950Z,95.50
2018-09-27T05:55:30.036Z,95.50
2018-09-27T05:57:59.114Z,95.60
2018-09-27T06:00:28.257Z,95.70
2018-09-27T06:02:57.352Z,95.80
2018-09-27T06:05:26.442Z,95.60
2018-09-27T06:07:55.530Z,95.80
2018-09-27T06:10:24.623Z,96.10
2018-09-27T06:12:53.703Z,96.10
2018-09-27T06:15:22.843Z,96.20
2018-09-27T06:17:51.893Z,96.20
2018-09-27T06:20:21.006Z,96.30
2018-09-27T06:22:50.104Z,96.20
2018-09-27T06:25:19.219Z,96.10
2018-09-27T06:27:48.411Z,95.90
2018-09-27T06:30:17.706Z,95.90
2018-09-27T06:32:46.798Z,95.60
2018-09-27T06:35:15.894Z,95.50
2018-09-27T06:37:44.997Z,95.20
2018-09-27T06:40:14.098Z,95.40
2018-09-27T06:42:43.222Z,95.50
2018-09-27T06:45:12.283Z,95.50
2018-09-27T06:47:41.363Z,95.50
2018-09-27T06:50:10.640Z,95.50
2018-09-27T06:52:39.758Z,95.60
2018-09-27T06:55:09.104Z,96.10
2018-09-27T06:57:38.038Z,96.40
2018-09-27T07:00:07.834Z,96.30
2018-09-27T07:02:36.955Z,95.70
2018-09-27T07:05:06.168Z,95.40
2018-09-27T07:07:35.251Z,95.40
2018-09-27T07:10:04.573Z,95.20
2018-09-27T07:12:33.716Z,95.30
2018-09-27T07:15:02.782Z,95.20
2018-09-27T07:17:31.834Z,95.10
2018-09-27T07:20:00.955Z,95.20
2018-09-27T07:22:30.034Z,95.20
2018-09-27T07:24:59.149Z,95.10
2018-09-27T07:27:28.221Z,95.60
2018-09-27T07:29:57.334Z,95.30
2018-09-27T07:32:26.465Z,95.00
2018-09-27T07:34:55.515Z,95.00
2018-09-27T07:37:25.170Z,94.90
2018-09-27T07:39:54.283Z,94.90
2018-09-27T07:42:23.367Z,94.90
2018-09-27T07:44:52.569Z,94.90
2018-09-27T07:47:21.682Z,94.80
2018-09-27T07:49:50.762Z,94.80
2018-09-27T07:52:19.882Z,95.00
2018-09-27T07:54:49.087Z,94.90
2018-09-27T07:57:18.178Z,94.90
2018-09-27T07:59:47.269Z,95.00
2018-09-27T08:02:16.394Z,94.80
2018-09-27T08:04:45.685Z,94.80
2018-09-27T08:07:14.766Z,94.70
2018-09-27T08:09:44.146Z,94.50
2018-09-27T08:12:13.352Z,94.50
2018-09-27T08:14:42.642Z,94.30
2018-09-27T08:17:11.681Z,94.30
2018-09-27T08:19:40.704Z,94.30
2018-09-27T08:22:09.797Z,94.20
2018-09-27T08:24:38.918Z,94.20
2018-09-27T08:27:08.072Z,94.10
2018-09-27T08:29:37.194Z,93.90
2018-09-27T08:32:06.468Z,93.90
2018-09-27T08:34:35.554Z,93.70
2018-09-27T08:37:04.659Z,93.50
2018-09-27T08:39:33.718Z,93.30
2018-09-27T08:42:02.835Z,93.20
2018-09-27T08:44:31.976Z,92.90
2018-09-27T08:47:01.097Z,92.80
2018-09-27T08:49:30.225Z,92.50
2018-09-27T08:51:59.444Z,92.30
2018-09-27T08:54:28.617Z,92.10
2018-09-27T08:56:57.815Z,91.80
2018-09-27T08:59:26.946Z,91.30
2018-09-27T09:01:56.110Z,91.10
2018-09-27T09:04:25.233Z,91.00
2018-09-27T09:06:54.366Z,91.00
2018-09-27T09:09:23.516Z,90.90
2018-09-27T09:11:52.670Z,90.60
2018-09-27T09:14:21.839Z,90.40
2018-09-27T09:16:51.374Z,90.60
2018-09-27T09:19:20.618Z,90.60
2018-09-27T09:21:49.760Z,90.70
2018-09-27T09:24:19.045Z,90.40
2018-09-27T09:26:48.183Z,90.30
2018-09-27T09:29:17.442Z,90.40
2018-09-27T09:31:46.515Z,90.20
2018-09-27T09:34:15.689Z,90.00
2018-09-27T09:36:44.810Z,90.00
2018-09-27T09:39:13.923Z,89.80
2018-09-27T09:41:43.066Z,89.80
2018-09-27T09:44:12.174Z,89.70
2018-09-27T09:46:41.350Z,89.20
2018-09-27T09:49:10.529Z,89.20
2018-09-27T09:51:39.842Z,89.20
2018-09-27T09:54:08.954Z,88.90
2018-09-27T09:56:38.082Z,88.70
2018-09-27T09:59:07.474Z,88.70
2018-09-27T10:01:36.598Z,88.10
2018-09-27T10:04:05.919Z,88.40
2018-09-27T10:06:35.011Z,87.40
2018-09-27T10:09:05.547Z,87.20
2018-09-27T10:11:34.629Z,87.10
2018-09-27T10:14:03.748Z,87.10
2018-09-27T10:16:33.114Z,86.80
2018-09-27T10:19:02.213Z,86.60
2018-09-27T10:21:31.360Z,86.40
2018-09-27T10:24:00.650Z,86.20
2018-09-27T10:26:29.821Z,85.70
2018-09-27T10:28:58.933Z,85.70
2018-09-27T10:31:28.082Z,85.60
2018-09-27T10:33:57.200Z,85.40
2018-09-27T10:36:26.421Z,85.60
2018-09-27T10:38:55.587Z,85.00
2018-09-27T10:41:24.730Z,84.70
2018-09-27T10:43:53.887Z,84.70
2018-09-27T10:46:23.037Z,84.80
2018-09-27T10:48:52.200Z,84.50
2018-09-27T10:51:21.376Z,84.40
2018-09-27T10:53:50.590Z,84.80
2018-09-27T10:56:19.818Z,83.70
2018-09-27T10:58:48.963Z,83.30
2018-09-27T11:01:18.156Z,82.70
2018-09-27T11:03:47.341Z,82.20
2018-09-27T11:06:16.497Z,82.00
2018-09-27T11:08:45.714Z,82.00
2018-09-27T11:11:15.003Z,81.50
2018-09-27T11:13:44.131Z,81.90
2018-09-27T11:16:13.378Z,80.90
2018-09-27T11:18:42.586Z,80.40
2018-09-27T11:21:11.732Z,80.40
2018-09-27T11:23:40.894Z,79.30
2018-09-27T11:26:10.100Z,79.00
2018-09-27T11:28:44.632Z,78.30
2018-09-27T11:31:19.115Z,78.10
2018-09-27T11:33:48.235Z,77.10
2018-09-27T11:36:17.530Z,78.40
2018-09-27T11:38:46.780Z,76.70
2018-09-27T11:41:15.891Z,76.00
2018-09-27T11:43:45.519Z,75.50
2018-09-27T11:46:14.656Z,74.90
2018-09-27T11:48:43.833Z,74.50
2018-09-27T11:51:13.029Z,74.20
2018-09-27T11:53:42.211Z,74.00
2018-09-27T11:56:11.440Z,74.00
2018-09-27T11:58:40.577Z,74.10
2018-09-27T12:01:09.819Z,73.60
2018-09-27T12:03:39.405Z,73.50
2018-09-27T12:06:08.576Z,72.90
2018-09-27T12:08:37.731Z,72.70
2018-09-27T12:11:06.881Z,72.90
2018-09-27T12:13:36.789Z,72.40
2018-09-27T12:16:05.950Z,71.30
2018-09-27T12:18:35.125Z,71.30
2018-09-27T12:21:04.309Z,70.70
2018-09-27T12:23:33.522Z,70.60
2018-09-27T12:26:02.663Z,70.60
2018-09-27T12:28:32.096Z,70.40
2018-09-27T12:31:01.416Z,70.50
2018-09-27T12:33:30.726Z,69.20
2018-09-27T12:35:59.898Z,69.00
2018-09-27T12:38:29.154Z,69.20
2018-09-27T12:40:58.211Z,69.30
2018-09-27T12:43:27.421Z,68.60
2018-09-27T12:45:56.611Z,67.40
2018-09-27T12:48:25.803Z,67.70
2018-09-27T12:50:54.921Z,67.30
2018-09-27T12:53:24.081Z,66.60
2018-09-27T12:55:53.325Z,67.20
2018-09-27T12:58:22.444Z,66.90
2018-09-27T13:00:51.631Z,67.20
2018-09-27T13:03:20.877Z,66.50
2018-09-27T13:05:50.063Z,66.30
2018-09-27T13:08:19.259Z,66.00
2018-09-27T13:10:48.464Z,65.80
2018-09-27T13:13:17.823Z,65.90
2018-09-27T13:15:46.974Z,65.80
2018-09-27T13:18:19.137Z,65.90
2018-09-27T13:20:48.372Z,65.60
2018-09-27T13:23:17.649Z,64.80
2018-09-27T13:25:47.005Z,65.00
2018-09-27T13:28:16.230Z,64.90
2018-09-27T13:30:45.418Z,65.10
2018-09-27T13:33:14.636Z,64.90
2018-09-27T13:35:43.884Z,64.60
2018-09-27T13:38:13.104Z,63.40
2018-09-27T13:40:42.343Z,63.90
2018-09-27T13:43:11.601Z,64.10
2018-09-27T13:45:40.875Z,64.10
2018-09-27T13:48:10.167Z,63.90
2018-09-27T13:50:39.363Z,63.20
2018-09-27T13:53:08.590Z,63.10
2018-09-27T13:55:37.857Z,63.10
2018-09-27T13:58:07.050Z,63.50
2018-09-27T14:00:36.300Z,63.30
2018-09-27T14:03:05.673Z,63.20
2018-09-27T14:05:34.914Z,62.10
2018-09-27T14:08:04.111Z,62.10
2018-09-27T14:10:33.263Z,62.50
2018-09-27T14:13:02.455Z,62.90
2018-09-27T14:15:31.690Z,61.40
2018-09-27T14:18:00.847Z,61.20
2018-09-27T14:20:30.099Z,60.80
2018-09-27T14:22:59.286Z,60.90
2018-09-27T14:25:28.588Z,61.40
2018-09-27T14:27:57.870Z,61.70
2018-09-27T14:30:27.121Z,60.90
2018-09-27T14:32:56.323Z,61.70
2018-09-27T14:35:25.573Z,61.90
2018-09-27T14:37:54.754Z,60.90
2018-09-27T14:40:23.915Z,60.50
2018-09-27T14:42:53.090Z,60.10
2018-09-27T14:45:22.259Z,58.90
2018-09-27T14:47:51.619Z,58.90
2018-09-27T14:50:20.789Z,59.30
2018-09-27T14:52:49.887Z,58.90
2018-09-27T14:55:19.255Z,58.80
2018-09-27T14:57:48.424Z,59.10
2018-09-27T15:00:17.611Z,59.40
2018-09-27T15:02:46.771Z,59.10
2018-09-27T15:05:15.959Z,59.80
2018-09-27T15:07:45.407Z,59.00
2018-09-27T15:10:14.592Z,59.30
2018-09-27T15:12:43.796Z,59.60
2018-09-27T15:15:12.933Z,59.40
2018-09-27T15:17:42.171Z,59.60
2018-09-27T15:20:11.329Z,59.80
2018-09-27T15:22:40.600Z,59.70
2018-09-27T15:25:09.913Z,59.70
2018-09-27T15:27:39.350Z,60.10
2018-09-27T15:30:08.541Z,59.80
2018-09-27T15:32:37.793Z,59.80
2018-09-27T15:35:06.998Z,59.40
2018-09-27T15:37:36.302Z,59.70
2018-09-27T15:40:05.718Z,59.70
2018-09-27T15:42:34.762Z,59.20
2018-09-27T15:45:04.000Z,59.00
2018-09-27T15:47:33.186Z,58.80
2018-09-27T15:50:02.347Z,58.60
2018-09-27T15:52:32.668Z,58.60
2018-09-27T15:55:01.815Z,58.90
2018-09-27T15:57:31.085Z,59.00
2018-09-27T16:00:00.384Z,59.70
2018-09-27T16:02:29.563Z,59.60
2018-09-27T16:04:58.798Z,59.20
2018-09-27T16:07:28.032Z,59.10
2018-09-27T16:09:57.224Z,59.40
2018-09-27T16:12:26.490Z,59.30
2018-09-27T16:14:56.016Z,63.10
2018-09-27T16:17:25.025Z,62.10
2018-09-27T16:19:54.272Z,63.90
2018-09-27T16:22:23.491Z,62.40
2018-09-27T16:24:52.847Z,63.60
2018-09-27T16:27:22.023Z,63.60
2018-09-27T16:29:51.307Z,64.90
2018-09-27T16:32:20.515Z,64.90
2018-09-27T16:34:50.096Z,66.40
2018-09-27T16:37:19.394Z,67.20
2018-09-27T16:39:48.624Z,68.20
2018-09-27T16:42:17.880Z,68.80
2018-09-27T16:44:47.212Z,69.80
2018-09-27T16:47:16.491Z,70.00
2018-09-27T16:49:45.816Z,70.80
2018-09-27T16:52:15.677Z,75.50
2018-09-27T16:54:45.413Z,71.20
2018-09-27T16:57:14.599Z,71.70
2018-09-27T16:59:43.936Z,71.30
2018-09-27T17:02:12.926Z,71.00
2018-09-27T17:04:42.078Z,71.00
2018-09-27T17:07:11.251Z,71.60
2018-09-27T17:09:40.441Z,71.60
2018-09-27T17:12:09.622Z,72.00
2018-09-27T17:14:38.866Z,72.10
2018-09-27T17:17:08.099Z,73.00
2018-09-27T17:19:37.259Z,73.30
2018-09-27T17:22:06.485Z,74.20
2018-09-27T17:24:35.689Z,74.60
2018-09-27T17:27:04.863Z,75.40
2018-09-27T17:29:34.176Z,75.60
2018-09-27T17:32:03.308Z,75.70
2018-09-27T17:34:32.511Z,76.90
2018-09-27T17:37:02.010Z,77.20
2018-09-27T17:39:31.168Z,77.30
2018-09-27T17:42:00.342Z,77.60
2018-09-27T17:44:29.486Z,78.20
2018-09-27T17:46:58.628Z,78.50
2018-09-27T17:49:27.801Z,79.00
2018-09-27T17:51:57.028Z,78.30
2018-09-27T17:54:26.194Z,79.20
2018-09-27T17:56:55.343Z,80.00
2018-09-27T17:59:24.581Z,79.90
2018-09-27T18:01:53.826Z,80.20
2018-09-27T18:04:23.070Z,80.60
2018-09-27T18:06:52.416Z,80.50
2018-09-27T18:09:21.797Z,80.80
2018-09-27T18:11:51.027Z,80.90
2018-09-27T18:14:20.283Z,81.10
2018-09-27T18:16:50.824Z,80.60
2018-09-27T18:19:20.259Z,80.30
2018-09-27T18:21:49.532Z,80.00
2018-09-27T18:24:18.841Z,80.00
2018-09-27T18:26:48.140Z,80.10
2018-09-27T18:29:18.725Z,80.50
2018-09-27T18:31:48.700Z,80.30
2018-09-27T18:34:17.903Z,79.50
2018-09-27T18:36:49.510Z,79.50
2018-09-27T18:39:18.677Z,80.40
2018-09-27T18:41:47.833Z,80.70
2018-09-27T18:44:16.970Z,80.20
2018-09-27T18:46:46.178Z,80.20
2018-09-27T18:49:15.389Z,81.20
2018-09-27T18:51:44.599Z,81.00
2018-09-27T18:54:13.886Z,81.90
2018-09-27T18:56:43.074Z,82.30
2018-09-27T18:59:12.568Z,82.50
2018-09-27T19:01:41.754Z,82.40
2018-09-27T19:04:10.920Z,82.30
2018-09-27T19:06:40.103Z,81.80
2018-09-27T19:09:09.310Z,81.70
2018-09-27T19:11:38.566Z,81.20
2018-09-27T19:14:07.752Z,81.40
2018-09-27T19:16:36.965Z,81.40
2018-09-27T19:19:06.190Z,81.30
2018-09-27T19:21:35.372Z,81.30
2018-09-27T19:24:04.504Z,81.30
2018-09-27T19:26:33.682Z,81.50
2018-09-27T19:29:02.901Z,81.80
2018-09-27T19:31:32.220Z,81.80
2018-09-27T19:34:01.396Z,82.00
2018-09-27T19:36:30.635Z,82.70
2018-09-27T19:38:59.894Z,82.50
2018-09-27T19:41:29.115Z,82.60
2018-09-27T19:43:58.344Z,82.50
2018-09-27T19:46:27.569Z,82.60
2018-09-27T19:48:56.924Z,82.90
2018-09-27T19:51:26.076Z,83.00
2018-09-27T19:53:55.406Z,83.30
2018-09-27T19:56:24.945Z,83.70
2018-09-27T19:58:54.178Z,83.80
2018-09-27T20:01:23.334Z,84.00
2018-09-27T20:03:52.491Z,84.00
2018-09-27T20:06:21.682Z,83.80
2018-09-27T20:08:50.873Z,84.20
2018-09-27T20:11:20.096Z,84.20
2018-09-27T20:13:49.234Z,84.40
2018-09-27T20:16:18.575Z,84.70
2018-09-27T20:18:47.601Z,84.60
2018-09-27T20:21:16.774Z,84.70
2018-09-27T20:23:46.256Z,85.10
2018-09-27T20:26:16.237Z,85.50
2018-09-27T20:28:45.362Z,85.60
2018-09-27T20:31:14.573Z,85.50
2018-09-27T20:33:43.729Z,85.90
2018-09-27T20:36:13.555Z,86.30
2018-09-27T20:38:42.729Z,86.30
2018-09-27T20:41:11.927Z,86.40
2018-09-27T20:43:41.125Z,86.30
2018-09-27T20:46:10.384Z,86.60
2018-09-27T20:48:39.701Z,86.30
2018-09-27T20:51:08.892Z,86.30
2018-09-27T20:53:38.045Z,86.40
2018-09-27T20:56:07.273Z,86.30
2018-09-27T20:58:36.477Z,86.60
2018-09-27T21:01:05.673Z,87.00
2018-09-27T21:03:34.917Z,87.10
2018-09-27T21:06:04.064Z,87.00
2018-09-27T21:08:33.194Z,87.20
2018-09-27T21:11:02.338Z,87.40
2018-09-27T21:13:31.587Z,87.80
2018-09-27T21:16:00.840Z,87.80
2018-09-27T21:18:29.937Z,87.90
2018-09-27T21:20:59.335Z,88.10
2018-09-27T21:23:28.790Z,88.20
2018-09-27T21:25:57.967Z,88.20
2018-09-27T21:28:27.929Z,88.40
2018-09-27T21:30:57.185Z,88.60
2018-09-27T21:33:26.348Z,88.90
2018-09-27T21:35:55.705Z,89.40
2018-09-27T21:38:24.830Z,89.50
2018-09-27T21:40:54.171Z,89.30
2018-09-27T21:43:23.958Z,89.50
2018-09-27T21:45:53.144Z,89.80
2018-09-27T21:48:22.461Z,90.00
2018-09-27T21:50:51.828Z,90.10
2018-09-27T21:53:21.224Z,90.10
2018-09-27T21:55:50.511Z,90.20
2018-09-27T21:58:19.960Z,90.30
2018-09-27T22:00:52.148Z,90.30
2018-09-27T22:03:23.564Z,90.40
2018-09-27T22:05:53.413Z,90.60
2018-09-27T22:08:22.683Z,90.60
2018-09-27T22:10:51.991Z,90.90
2018-09-27T22:13:21.295Z,91.00
2018-09-27T22:15:50.595Z,91.20
2018-09-27T22:18:19.951Z,91.40
2018-09-27T22:20:49.355Z,91.40
2018-09-27T22:23:18.705Z,91.50
2018-09-27T22:25:47.989Z,91.60
2018-09-27T22:28:17.328Z,91.60
2018-09-27T22:30:46.702Z,91.70
2018-09-27T22:33:16.101Z,91.90
2018-09-27T22:35:45.469Z,91.70
2018-09-27T22:38:14.889Z,91.70
2018-09-27T22:40:44.352Z,91.80
2018-09-27T22:43:13.745Z,92.00
2018-09-27T22:45:43.711Z,91.90
2018-09-27T22:48:13.091Z,92.10
2018-09-27T22:50:42.378Z,92.10
2018-09-27T22:53:11.759Z,92.00
2018-09-27T22:55:40.902Z,91.90
2018-09-27T22:58:10.054Z,91.90
2018-09-27T23:00:39.265Z,91.90
2018-09-27T23:03:08.382Z,91.90
2018-09-27T23:05:37.514Z,92.10
2018-09-27T23:08:06.722Z,92.00
2018-09-27T23:10:36.415Z,92.00
2018-09-27T23:13:05.536Z,92.20
2018-09-27T23:15:34.635Z,92.40
2018-09-27T23:18:03.776Z,92.50
2018-09-27T23:20:32.933Z,92.30
2018-09-27T23:23:02.141Z,92.30
2018-09-27T23:25:31.352Z,92.20
2018-09-27T23:28:00.634Z,92.30
2018-09-27T23:30:29.743Z,92.50
2018-09-27T23:32:58.859Z,92.60
2018-09-27T23:35:28.019Z,92.60
2018-09-27T23:37:57.189Z,92.60
2018-09-27T23:40:26.294Z,92.50
2018-09-27T23:42:55.504Z,92.50
2018-09-27T23:45:24.640Z,92.70
2018-09-27T23:47:53.778Z,92.70
2018-09-27T23:50:23.849Z,92.70
2018-09-27T23:52:52.987Z,92.40
2018-09-27T23:55:22.142Z,92.60
2018-09-27T23:57:51.245Z,92.60
